sensor_id;sensor_type;location;lat;lon;timestamp;pressure;altitude;pressure_sealevel;temperature;humidity
69737;BME280;64476;55.004;73.342;2023-02-23T00:01:21;99586.25;;;-3.04;53.62
69737;BME280;64476;55.004;73.342;2023-02-23T00:04:36;99573.16;;;-3.14;53.86
69737;BME280;64476;55.004;73.342;2023-02-23T00:07:39;99627.69;;;-2.82;53.79
69737;BME280;64476;55.004;73.342;2023-02-23T00:10:54;99636.28;;;-2.83;53.84
69737;BME280;64476;55.004;73.342;2023-02-23T00:14:08;99585.25;;;-3.16;53.65
69737;BME280;64476;55.004;73.342;2023-02-23T00:17:10;99665.31;;;-2.81;53.38
69737;BME280;64476;55.004;73.342;2023-02-23T00:20:14;99611.91;;;-3.31;53.63
69737;BME280;64476;55.004;73.342;2023-02-23T00:23:16;99671.16;;;-3.06;53.96
69737;BME280;64476;55.004;73.342;2023-02-23T00:26:19;99672.44;;;-3.13;54.23
69737;BME280;64476;55.004;73.342;2023-02-23T00:32:32;99657.63;;;-3.36;54.27
69737;BME280;64476;55.004;73.342;2023-02-23T00:35:35;99674.31;;;-3.29;54.42
69737;BME280;64476;55.004;73.342;2023-02-23T00:38:37;99689.25;;;-3.36;53.94
69737;BME280;64476;55.004;73.342;2023-02-23T00:41:50;99682.84;;;-3.43;54.34
69737;BME280;64476;55.004;73.342;2023-02-23T00:44:55;99682.38;;;-3.49;53.79
69737;BME280;64476;55.004;73.342;2023-02-23T00:47:57;99706.06;;;-3.44;53.28
69737;BME280;64476;55.004;73.342;2023-02-23T00:51:01;99702.25;;;-3.67;53.08
69737;BME280;64476;55.004;73.342;2023-02-23T00:54:11;99685.03;;;-3.80;52.87
69737;BME280;64476;55.004;73.342;2023-02-23T00:57:18;99690.53;;;-3.71;53.02
69737;BME280;64476;55.004;73.342;2023-02-23T01:00:19;99645.38;;;-4.04;52.64
69737;BME280;64476;55.004;73.342;2023-02-23T01:03:28;99684.91;;;-3.78;52.54
69737;BME280;64476;55.004;73.342;2023-02-23T01:06:30;99685.13;;;-3.81;53.46
69737;BME280;64476;55.004;73.342;2023-02-23T01:09:37;99729.63;;;-3.66;53.86
69737;BME280;64476;55.004;73.342;2023-02-23T01:12:39;99731.38;;;-3.67;53.85
69737;BME280;64476;55.004;73.342;2023-02-23T01:15:46;99746.22;;;-3.58;53.67
69737;BME280;64476;55.004;73.342;2023-02-23T01:18:49;99738.41;;;-3.56;53.62
69737;BME280;64476;55.004;73.342;2023-02-23T01:21:51;99739.34;;;-3.57;53.28
69737;BME280;64476;55.004;73.342;2023-02-23T01:24:53;99732.91;;;-3.64;53.64
69737;BME280;64476;55.004;73.342;2023-02-23T01:27:58;99729.16;;;-3.59;53.20
69737;BME280;64476;55.004;73.342;2023-02-23T01:31:00;99698.03;;;-3.83;53.31
69737;BME280;64476;55.004;73.342;2023-02-23T01:34:13;99697.81;;;-3.94;52.96
69737;BME280;64476;55.004;73.342;2023-02-23T01:37:15;99749.31;;;-3.81;53.67
69737;BME280;64476;55.004;73.342;2023-02-23T01:40:20;99704.56;;;-4.21;52.55
69737;BME280;64476;55.004;73.342;2023-02-23T01:43:31;99744.72;;;-4.06;52.98
69737;BME280;64476;55.004;73.342;2023-02-23T01:46:35;99694.16;;;-4.50;52.70
69737;BME280;64476;55.004;73.342;2023-02-23T01:49:49;99712.22;;;-4.67;52.70
69737;BME280;64476;55.004;73.342;2023-02-23T01:52:52;99761.94;;;-4.54;53.04
69737;BME280;64476;55.004;73.342;2023-02-23T01:56:31;99745.28;;;-4.63;52.70
69737;BME280;64476;55.004;73.342;2023-02-23T01:59:38;99748.03;;;-4.66;52.93
69737;BME280;64476;55.004;73.342;2023-02-23T02:02:41;99752.00;;;-4.60;52.81
69737;BME280;64476;55.004;73.342;2023-02-23T02:05:43;99756.69;;;-4.53;52.84
69737;BME280;64476;55.004;73.342;2023-02-23T02:08:50;99754.91;;;-4.51;52.20
69737;BME280;64476;55.004;73.342;2023-02-23T02:11:55;99705.91;;;-4.78;52.27
69737;BME280;64476;55.004;73.342;2023-02-23T02:15:05;99754.06;;;-4.51;52.29
69737;BME280;64476;55.004;73.342;2023-02-23T02:19:02;99783.84;;;-4.33;52.08
69737;BME280;64476;55.004;73.342;2023-02-23T02:23:20;99795.59;;;-4.29;51.97
69737;BME280;64476;55.004;73.342;2023-02-23T02:54:22;99729.41;;;-4.85;52.02
69737;BME280;64476;55.004;73.342;2023-02-23T02:57:27;99738.34;;;-4.77;52.47
69737;BME280;64476;55.004;73.342;2023-02-23T03:00:46;99778.53;;;-4.45;52.07
69737;BME280;64476;55.004;73.342;2023-02-23T03:04:21;99822.69;;;-4.09;52.26
69737;BME280;64476;55.004;73.342;2023-02-23T03:08:21;99761.75;;;-4.35;51.57
69737;BME280;64476;55.004;73.342;2023-02-23T03:12:03;99842.38;;;-3.93;51.34
69737;BME280;64476;55.004;73.342;2023-02-23T03:15:36;99847.03;;;-3.84;51.46
69737;BME280;64476;55.004;73.342;2023-02-23T03:19:13;99863.38;;;-3.71;51.38
69737;BME280;64476;55.004;73.342;2023-02-23T03:23:26;99676.47;;;-4.70;50.84
69737;BME280;64476;55.004;73.342;2023-02-23T03:26:57;99728.06;;;-4.45;51.39
69737;BME280;64476;55.004;73.342;2023-02-23T03:37:49;99835.34;;;-3.60;51.13
69737;BME280;64476;55.004;73.342;2023-02-23T03:41:14;99791.53;;;-3.87;51.36
69737;BME280;64476;55.004;73.342;2023-02-23T03:44:44;99810.34;;;-3.42;51.24
69737;BME280;64476;55.004;73.342;2023-02-23T03:48:08;99788.50;;;-3.49;51.08
69737;BME280;64476;55.004;73.342;2023-02-23T03:51:48;99803.44;;;-3.25;50.61
69737;BME280;64476;55.004;73.342;2023-02-23T03:55:22;99826.38;;;-3.08;50.75
69737;BME280;64476;55.004;73.342;2023-02-23T03:58:48;99806.28;;;-3.01;51.08
69737;BME280;64476;55.004;73.342;2023-02-23T04:02:10;99781.84;;;-3.09;51.06
69737;BME280;64476;55.004;73.342;2023-02-23T04:05:43;99749.72;;;-3.16;51.67
69737;BME280;64476;55.004;73.342;2023-02-23T04:09:05;99735.34;;;-3.04;51.21
69737;BME280;64476;55.004;73.342;2023-02-23T04:16:19;99773.81;;;-2.61;50.66
69737;BME280;64476;55.004;73.342;2023-02-23T04:19:26;99756.44;;;-2.58;50.50
69737;BME280;64476;55.004;73.342;2023-02-23T04:22:29;99762.00;;;-2.37;50.30
69737;BME280;64476;55.004;73.342;2023-02-23T04:25:32;99761.41;;;-2.27;50.08
69737;BME280;64476;55.004;73.342;2023-02-23T04:28:42;99726.47;;;-2.44;50.01
69737;BME280;64476;55.004;73.342;2023-02-23T04:31:48;99745.88;;;-2.53;50.31
69737;BME280;64476;55.004;73.342;2023-02-23T04:34:50;99697.00;;;-2.94;50.18
69737;BME280;64476;55.004;73.342;2023-02-23T04:37:51;99749.88;;;-2.76;50.25
69737;BME280;64476;55.004;73.342;2023-02-23T04:40:53;99728.91;;;-2.97;50.66
69737;BME280;64476;55.004;73.342;2023-02-23T04:43:55;99732.00;;;-3.06;50.67
69737;BME280;64476;55.004;73.342;2023-02-23T04:47:07;99748.63;;;-2.97;50.77
69737;BME280;64476;55.004;73.342;2023-02-23T04:50:19;99704.84;;;-3.39;50.79
69737;BME280;64476;55.004;73.342;2023-02-23T04:53:21;99716.78;;;-3.38;50.96
69737;BME280;64476;55.004;73.342;2023-02-23T04:59:57;99699.44;;;-3.77;51.89
69737;BME280;64476;55.004;73.342;2023-02-23T05:03:15;99721.44;;;-3.73;51.86
69737;BME280;64476;55.004;73.342;2023-02-23T05:06:18;99695.41;;;-3.81;52.00
69737;BME280;64476;55.004;73.342;2023-02-23T05:09:24;99733.09;;;-3.53;51.97
69737;BME280;64476;55.004;73.342;2023-02-23T05:12:26;99740.81;;;-3.39;52.31
69737;BME280;64476;55.004;73.342;2023-02-23T05:15:28;99715.31;;;-3.56;51.95
69737;BME280;64476;55.004;73.342;2023-02-23T05:18:36;99735.63;;;-3.37;52.25
69737;BME280;64476;55.004;73.342;2023-02-23T05:22:15;99751.47;;;-3.31;52.02
69737;BME280;64476;55.004;73.342;2023-02-23T05:25:17;99711.25;;;-3.60;52.48
69737;BME280;64476;55.004;73.342;2023-02-23T05:28:24;99701.81;;;-3.60;51.92
69737;BME280;64476;55.004;73.342;2023-02-23T05:31:26;99775.16;;;-3.25;52.14
69737;BME280;64476;55.004;73.342;2023-02-23T05:34:28;99756.88;;;-3.35;52.18
69737;BME280;64476;55.004;73.342;2023-02-23T05:37:29;99747.34;;;-3.33;52.51
69737;BME280;64476;55.004;73.342;2023-02-23T05:40:31;99754.25;;;-3.34;52.68
69737;BME280;64476;55.004;73.342;2023-02-23T05:43:38;99761.38;;;-3.39;52.83
69737;BME280;64476;55.004;73.342;2023-02-23T05:46:45;99787.25;;;-3.28;52.61
69737;BME280;64476;55.004;73.342;2023-02-23T05:49:50;99767.13;;;-3.49;53.63
69737;BME280;64476;55.004;73.342;2023-02-23T05:52:52;99779.19;;;-3.36;53.10
69737;BME280;64476;55.004;73.342;2023-02-23T05:56:05;99797.72;;;-3.31;53.17
69737;BME280;64476;55.004;73.342;2023-02-23T05:59:07;99799.09;;;-3.25;53.28
69737;BME280;64476;55.004;73.342;2023-02-23T06:02:08;99804.88;;;-3.36;53.69
69737;BME280;64476;55.004;73.342;2023-02-23T06:05:11;99762.84;;;-3.35;53.76
69737;BME280;64476;55.004;73.342;2023-02-23T06:08:13;99750.38;;;-3.27;53.93
69737;BME280;64476;55.004;73.342;2023-02-23T06:11:20;99772.31;;;-3.07;53.66
69737;BME280;64476;55.004;73.342;2023-02-23T06:14:22;99767.19;;;-2.92;53.46
69737;BME280;64476;55.004;73.342;2023-02-23T06:17:24;99763.13;;;-2.96;53.57
69737;BME280;64476;55.004;73.342;2023-02-23T06:20:31;99783.50;;;-2.93;53.30
69737;BME280;64476;55.004;73.342;2023-02-23T06:23:32;99747.91;;;-2.99;53.58
69737;BME280;64476;55.004;73.342;2023-02-23T06:26:44;99738.91;;;-3.07;52.99
69737;BME280;64476;55.004;73.342;2023-02-23T06:29:52;99783.50;;;-2.79;53.42
69737;BME280;64476;55.004;73.342;2023-02-23T06:32:59;99737.78;;;-3.03;53.35
69737;BME280;64476;55.004;73.342;2023-02-23T06:36:02;99741.91;;;-2.86;53.39
69737;BME280;64476;55.004;73.342;2023-02-23T06:39:10;99732.81;;;-2.77;52.49
69737;BME280;64476;55.004;73.342;2023-02-23T06:42:12;99725.72;;;-2.73;52.95
69737;BME280;64476;55.004;73.342;2023-02-23T06:45:21;99755.91;;;-2.48;52.76
69737;BME280;64476;55.004;73.342;2023-02-23T06:48:23;99748.69;;;-2.43;52.54
69737;BME280;64476;55.004;73.342;2023-02-23T06:51:24;99731.50;;;-2.70;52.25
69737;BME280;64476;55.004;73.342;2023-02-23T06:54:26;99762.78;;;-2.49;52.98
69737;BME280;64476;55.004;73.342;2023-02-23T06:57:28;99754.63;;;-2.28;52.41
69737;BME280;64476;55.004;73.342;2023-02-23T07:00:29;99698.81;;;-2.41;52.29
69737;BME280;64476;55.004;73.342;2023-02-23T07:03:31;99756.47;;;-1.91;51.88
69737;BME280;64476;55.004;73.342;2023-02-23T07:06:33;99740.53;;;-1.83;51.63
69737;BME280;64476;55.004;73.342;2023-02-23T07:09:42;99690.81;;;-2.23;51.57
69737;BME280;64476;55.004;73.342;2023-02-23T07:12:44;99739.06;;;-2.00;52.24
69737;BME280;64476;55.004;73.342;2023-02-23T07:15:48;99723.22;;;-1.94;52.12
69737;BME280;64476;55.004;73.342;2023-02-23T07:19:00;99693.19;;;-2.20;51.98
69737;BME280;64476;55.004;73.342;2023-02-23T07:22:02;99694.63;;;-2.16;51.83
69737;BME280;64476;55.004;73.342;2023-02-23T07:25:10;99693.19;;;-2.20;52.10
69737;BME280;64476;55.004;73.342;2023-02-23T07:28:13;99729.41;;;-1.84;51.93
69737;BME280;64476;55.004;73.342;2023-02-23T07:31:15;99635.38;;;-2.42;51.83
69737;BME280;64476;55.004;73.342;2023-02-23T07:34:21;99709.84;;;-1.73;51.84
69737;BME280;64476;55.004;73.342;2023-02-23T07:37:56;99673.06;;;-2.01;51.77
69737;BME280;64476;55.004;73.342;2023-02-23T07:41:03;99731.69;;;-1.66;51.83
69737;BME280;64476;55.004;73.342;2023-02-23T07:47:52;99702.53;;;-1.92;52.43
69737;BME280;64476;55.004;73.342;2023-02-23T07:50:54;99719.72;;;-1.93;52.06
69737;BME280;64476;55.004;73.342;2023-02-23T07:53:55;99726.81;;;-1.84;52.57
69737;BME280;64476;55.004;73.342;2023-02-23T07:57:02;99674.78;;;-2.27;53.06
69737;BME280;64476;55.004;73.342;2023-02-23T08:00:09;99718.44;;;-2.13;53.23
69737;BME280;64476;55.004;73.342;2023-02-23T08:03:14;99722.16;;;-2.04;53.36
69737;BME280;64476;55.004;73.342;2023-02-23T08:09:50;99701.97;;;-2.10;53.23
69737;BME280;64476;55.004;73.342;2023-02-23T08:13:02;99714.00;;;-2.11;53.54
69737;BME280;64476;55.004;73.342;2023-02-23T08:16:04;99709.50;;;-2.07;53.91
69737;BME280;64476;55.004;73.342;2023-02-23T08:19:10;99702.81;;;-1.97;53.82
69737;BME280;64476;55.004;73.342;2023-02-23T08:22:12;99692.13;;;-1.78;53.91
69737;BME280;64476;55.004;73.342;2023-02-23T08:25:15;99674.09;;;-1.78;53.75
69737;BME280;64476;55.004;73.342;2023-02-23T08:28:16;99604.38;;;-2.00;54.03
69737;BME280;64476;55.004;73.342;2023-02-23T08:31:50;99663.47;;;-1.48;53.75
69737;BME280;64476;55.004;73.342;2023-02-23T08:35:03;99625.66;;;-1.47;53.69
69737;BME280;64476;55.004;73.342;2023-02-23T08:38:12;99578.56;;;-1.62;53.45
69737;BME280;64476;55.004;73.342;2023-02-23T08:41:14;99619.91;;;-1.14;53.24
69737;BME280;64476;55.004;73.342;2023-02-23T08:44:16;99585.44;;;-1.13;52.91
69737;BME280;64476;55.004;73.342;2023-02-23T08:47:22;99609.00;;;-0.94;52.93
69737;BME280;64476;55.004;73.342;2023-02-23T08:50:24;99593.84;;;-0.98;53.25
69737;BME280;64476;55.004;73.342;2023-02-23T08:53:27;99603.81;;;-1.18;52.86
69737;BME280;64476;55.004;73.342;2023-02-23T08:56:44;99609.59;;;-1.14;52.85
69737;BME280;64476;55.004;73.342;2023-02-23T08:59:55;99610.84;;;-1.20;52.84
69737;BME280;64476;55.004;73.342;2023-02-23T09:02:58;99609.31;;;-1.35;52.90
69737;BME280;64476;55.004;73.342;2023-02-23T09:09:51;99643.44;;;-1.19;53.14
69737;BME280;64476;55.004;73.342;2023-02-23T09:13:33;99610.78;;;-1.44;53.50
69737;BME280;64476;55.004;73.342;2023-02-23T09:16:44;99649.00;;;-1.25;53.61
69737;BME280;64476;55.004;73.342;2023-02-23T09:23:33;99581.19;;;-2.00;54.39
69737;BME280;64476;55.004;73.342;2023-02-23T09:26:44;99646.59;;;-1.52;54.28
69737;BME280;64476;55.004;73.342;2023-02-23T09:29:46;99568.53;;;-2.03;54.78
69737;BME280;64476;55.004;73.342;2023-02-23T09:32:50;99625.88;;;-1.63;54.67
69737;BME280;64476;55.004;73.342;2023-02-23T09:39:30;99578.41;;;-2.10;55.40
69737;BME280;64476;55.004;73.342;2023-02-23T09:43:43;99636.59;;;-1.69;56.53
69737;BME280;64476;55.004;73.342;2023-02-23T09:46:57;99629.91;;;-1.85;57.89
69737;BME280;64476;55.004;73.342;2023-02-23T09:50:54;99642.78;;;-1.85;58.00
69737;BME280;64476;55.004;73.342;2023-02-23T09:53:57;99637.22;;;-1.91;59.16
69737;BME280;64476;55.004;73.342;2023-02-23T09:57:09;99570.78;;;-2.37;59.62
69737;BME280;64476;55.004;73.342;2023-02-23T10:00:22;99625.97;;;-2.03;59.91
69737;BME280;64476;55.004;73.342;2023-02-23T10:03:33;99532.66;;;-2.58;60.43
69737;BME280;64476;55.004;73.342;2023-02-23T10:06:49;99564.28;;;-2.43;61.42
69737;BME280;64476;55.004;73.342;2023-02-23T10:10:07;99575.63;;;-2.33;61.89
69737;BME280;64476;55.004;73.342;2023-02-23T10:13:20;99617.03;;;-2.10;61.52
69737;BME280;64476;55.004;73.342;2023-02-23T10:16:53;99551.22;;;-2.52;62.64
69737;BME280;64476;55.004;73.342;2023-02-23T10:23:21;99593.44;;;-2.04;62.39
69737;BME280;64476;55.004;73.342;2023-02-23T10:26:51;99580.47;;;-2.02;63.14
69737;BME280;64476;55.004;73.342;2023-02-23T10:30:28;99549.06;;;-2.20;63.23
69737;BME280;64476;55.004;73.342;2023-02-23T10:33:37;99555.75;;;-1.92;62.93
69737;BME280;64476;55.004;73.342;2023-02-23T10:36:56;99563.97;;;-1.74;63.29
69737;BME280;64476;55.004;73.342;2023-02-23T10:40:00;99441.22;;;-2.49;62.74
69737;BME280;64476;55.004;73.342;2023-02-23T10:43:15;99560.25;;;-1.83;63.14
69737;BME280;64476;55.004;73.342;2023-02-23T10:46:21;99537.53;;;-2.02;63.79
69737;BME280;64476;55.004;73.342;2023-02-23T10:53:24;99549.75;;;-1.67;63.26
69737;BME280;64476;55.004;73.342;2023-02-23T10:56:42;99539.16;;;-1.75;63.33
69737;BME280;64476;55.004;73.342;2023-02-23T11:06:33;99531.09;;;-1.71;62.63
69737;BME280;64476;55.004;73.342;2023-02-23T11:09:35;99527.09;;;-1.75;62.84
69737;BME280;64476;55.004;73.342;2023-02-23T11:13:22;99537.34;;;-1.62;63.66
69737;BME280;64476;55.004;73.342;2023-02-23T11:16:59;99518.56;;;-1.75;63.17
69737;BME280;64476;55.004;73.342;2023-02-23T11:23:20;99453.44;;;-1.90;63.00
69737;BME280;64476;55.004;73.342;2023-02-23T11:29:43;99498.00;;;-1.64;62.84
69737;BME280;64476;55.004;73.342;2023-02-23T11:32:52;99453.38;;;-1.89;63.28
69737;BME280;64476;55.004;73.342;2023-02-23T11:36:00;99509.09;;;-1.51;63.51
69737;BME280;64476;55.004;73.342;2023-02-23T11:42:33;99482.97;;;-1.70;63.25
69737;BME280;64476;55.004;73.342;2023-02-23T11:45:44;99509.69;;;-1.47;63.21
69737;BME280;64476;55.004;73.342;2023-02-23T11:48:59;99467.03;;;-1.75;63.07
69737;BME280;64476;55.004;73.342;2023-02-23T11:52:11;99439.94;;;-1.81;63.63
69737;BME280;64476;55.004;73.342;2023-02-23T11:55:17;99488.00;;;-1.56;63.50
69737;BME280;64476;55.004;73.342;2023-02-23T12:08:44;99490.03;;;-1.61;64.66
69737;BME280;64476;55.004;73.342;2023-02-23T12:12:20;99421.66;;;-2.02;64.21
69737;BME280;64476;55.004;73.342;2023-02-23T12:18:58;99431.50;;;-1.83;64.44
69737;BME280;64476;55.004;73.342;2023-02-23T12:22:19;99413.38;;;-1.82;64.18
69737;BME280;64476;55.004;73.342;2023-02-23T12:25:29;99418.91;;;-1.75;64.30
69737;BME280;64476;55.004;73.342;2023-02-23T12:32:59;99444.78;;;-1.52;64.38
69737;BME280;64476;55.004;73.342;2023-02-23T12:36:23;99441.28;;;-1.51;64.45
69737;BME280;64476;55.004;73.342;2023-02-23T12:39:51;99434.28;;;-1.49;64.58
69737;BME280;64476;55.004;73.342;2023-02-23T12:46:28;99395.41;;;-1.70;64.51
69737;BME280;64476;55.004;73.342;2023-02-23T12:49:42;99428.34;;;-1.39;64.66
69737;BME280;64476;55.004;73.342;2023-02-23T12:52:53;99415.94;;;-1.34;64.42
69737;BME280;64476;55.004;73.342;2023-02-23T13:13:44;99400.09;;;-1.05;64.18
69737;BME280;64476;55.004;73.342;2023-02-23T13:16:59;99357.81;;;-1.38;64.29
69737;BME280;64476;55.004;73.342;2023-02-23T13:20:21;99342.59;;;-1.41;64.44
69737;BME280;64476;55.004;73.342;2023-02-23T13:23:53;99347.28;;;-1.46;64.66
69737;BME280;64476;55.004;73.342;2023-02-23T13:27:11;99328.50;;;-1.48;64.45
69737;BME280;64476;55.004;73.342;2023-02-23T13:30:28;99334.41;;;-1.35;64.33
69737;BME280;64476;55.004;73.342;2023-02-23T13:33:34;99372.66;;;-1.06;64.15
69737;BME280;64476;55.004;73.342;2023-02-23T13:36:44;99384.72;;;-1.06;64.52
69737;BME280;64476;55.004;73.342;2023-02-23T13:46:52;99367.75;;;-1.09;64.73
69737;BME280;64476;55.004;73.342;2023-02-23T13:56:50;99335.84;;;-1.08;64.91
69737;BME280;64476;55.004;73.342;2023-02-23T13:59:55;99348.75;;;-0.97;64.80
69737;BME280;64476;55.004;73.342;2023-02-23T14:03:02;99337.50;;;-1.07;65.23
69737;BME280;64476;55.004;73.342;2023-02-23T14:06:04;99335.97;;;-0.98;65.21
69737;BME280;64476;55.004;73.342;2023-02-23T14:09:23;99259.88;;;-1.49;65.40
69737;BME280;64476;55.004;73.342;2023-02-23T14:12:39;99339.84;;;-0.93;65.64
69737;BME280;64476;55.004;73.342;2023-02-23T14:15:47;99333.53;;;-0.89;65.21
69737;BME280;64476;55.004;73.342;2023-02-23T14:19:29;99324.50;;;-0.83;65.53
69737;BME280;64476;55.004;73.342;2023-02-23T14:22:35;99269.50;;;-1.06;64.83
69737;BME280;64476;55.004;73.342;2023-02-23T14:29:21;99294.75;;;-0.76;65.56
69737;BME280;64476;55.004;73.342;2023-02-23T14:32:46;99282.16;;;-0.80;65.45
69737;BME280;64476;55.004;73.342;2023-02-23T14:36:00;99271.84;;;-0.80;65.33
69737;BME280;64476;55.004;73.342;2023-02-23T14:39:21;99281.09;;;-0.67;65.19
69737;BME280;64476;55.004;73.342;2023-02-23T14:42:26;99214.66;;;-0.86;64.83
69737;BME280;64476;55.004;73.342;2023-02-23T14:45:32;99270.31;;;-0.49;64.81
69737;BME280;64476;55.004;73.342;2023-02-23T14:48:39;99263.81;;;-0.44;64.63
69737;BME280;64476;55.004;73.342;2023-02-23T14:51:59;99271.09;;;-0.38;64.65
69737;BME280;64476;55.004;73.342;2023-02-23T15:01:59;99180.53;;;-0.78;65.17
69737;BME280;64476;55.004;73.342;2023-02-23T15:08:45;99243.66;;;-0.39;65.42
69737;BME280;64476;55.004;73.342;2023-02-23T15:11:48;99170.56;;;-0.71;65.28
69737;BME280;64476;55.004;73.342;2023-02-23T15:15:00;99166.34;;;-0.72;65.42
69737;BME280;64476;55.004;73.342;2023-02-23T15:18:18;99218.28;;;-0.33;65.40
69737;BME280;64476;55.004;73.342;2023-02-23T15:21:22;99166.53;;;-0.64;64.89
69737;BME280;64476;55.004;73.342;2023-02-23T15:24:35;99154.03;;;-0.80;65.65
69737;BME280;64476;55.004;73.342;2023-02-23T15:27:42;99153.06;;;-0.68;65.29
69737;BME280;64476;55.004;73.342;2023-02-23T15:30:58;99207.63;;;-0.40;65.39
69737;BME280;64476;55.004;73.342;2023-02-23T15:34:10;99201.63;;;-0.41;65.44
69737;BME280;64476;55.004;73.342;2023-02-23T15:37:34;99207.13;;;-0.34;65.82
69737;BME280;64476;55.004;73.342;2023-02-23T15:40:34;99201.88;;;-0.44;66.01
69737;BME280;64476;55.004;73.342;2023-02-23T15:43:38;99160.56;;;-0.65;65.75
69737;BME280;64476;55.004;73.342;2023-02-23T15:50:32;99145.44;;;-0.69;66.08
69737;BME280;64476;55.004;73.342;2023-02-23T15:56:47;99182.19;;;-0.45;66.79
69737;BME280;64476;55.004;73.342;2023-02-23T15:59:50;99119.22;;;-0.86;66.63
69737;BME280;64476;55.004;73.342;2023-02-23T16:02:57;99185.16;;;-0.49;66.85
69737;BME280;64476;55.004;73.342;2023-02-23T16:06:02;99139.13;;;-0.76;67.26
69737;BME280;64476;55.004;73.342;2023-02-23T16:12:32;99165.72;;;-0.65;67.38
69737;BME280;64476;55.004;73.342;2023-02-23T16:15:46;99158.66;;;-0.63;67.37
69737;BME280;64476;55.004;73.342;2023-02-23T16:18:53;99183.81;;;-0.44;68.11
69737;BME280;64476;55.004;73.342;2023-02-23T16:22:01;99175.84;;;-0.41;67.32
69737;BME280;64476;55.004;73.342;2023-02-23T16:25:12;99124.56;;;-0.66;67.23
69737;BME280;64476;55.004;73.342;2023-02-23T16:28:17;99156.25;;;-0.43;67.32
69737;BME280;64476;55.004;73.342;2023-02-23T16:31:38;99055.53;;;-1.06;67.51
69737;BME280;64476;55.004;73.342;2023-02-23T16:42:05;99179.22;;;-0.08;67.05
69737;BME280;64476;55.004;73.342;2023-02-23T16:45:13;99158.38;;;-0.16;67.33
69737;BME280;64476;55.004;73.342;2023-02-23T16:48:49;99123.22;;;-0.28;67.23
69737;BME280;64476;55.004;73.342;2023-02-23T16:51:56;99125.09;;;-0.30;67.38
69737;BME280;64476;55.004;73.342;2023-02-23T16:54:58;99150.25;;;-0.12;67.07
69737;BME280;64476;55.004;73.342;2023-02-23T16:58:14;99157.16;;;-0.12;67.28
69737;BME280;64476;55.004;73.342;2023-02-23T17:01:21;99127.50;;;-0.18;67.12
69737;BME280;64476;55.004;73.342;2023-02-23T17:04:23;99138.63;;;0.04;66.80
69737;BME280;64476;55.004;73.342;2023-02-23T17:07:30;99158.03;;;0.19;66.72
69737;BME280;64476;55.004;73.342;2023-02-23T17:10:49;99135.34;;;0.23;66.35
69737;BME280;64476;55.004;73.342;2023-02-23T17:13:54;99120.94;;;0.20;66.29
69737;BME280;64476;55.004;73.342;2023-02-23T17:16:55;99154.53;;;0.51;65.96
69737;BME280;64476;55.004;73.342;2023-02-23T17:20:02;99140.53;;;0.53;65.47
69737;BME280;64476;55.004;73.342;2023-02-23T17:23:06;99143.94;;;0.64;65.45
69737;BME280;64476;55.004;73.342;2023-02-23T17:26:10;99142.22;;;0.74;65.21
69737;BME280;64476;55.004;73.342;2023-02-23T17:29:17;99120.81;;;0.62;64.58
69737;BME280;64476;55.004;73.342;2023-02-23T17:32:19;99073.03;;;0.47;64.90
69737;BME280;64476;55.004;73.342;2023-02-23T17:35:24;99118.69;;;0.77;64.12
69737;BME280;64476;55.004;73.342;2023-02-23T17:38:26;99095.25;;;0.69;64.08
69737;BME280;64476;55.004;73.342;2023-02-23T17:41:44;99101.53;;;0.76;64.31
69737;BME280;64476;55.004;73.342;2023-02-23T17:44:52;99131.00;;;0.94;63.15
69737;BME280;64476;55.004;73.342;2023-02-23T17:47:55;99126.06;;;0.91;62.95
69737;BME280;64476;55.004;73.342;2023-02-23T17:50:59;99106.00;;;0.74;62.97
69737;BME280;64476;55.004;73.342;2023-02-23T17:54:08;99116.50;;;0.82;62.69
69737;BME280;64476;55.004;73.342;2023-02-23T17:57:14;99114.31;;;0.77;62.43
69737;BME280;64476;55.004;73.342;2023-02-23T18:00:18;99124.66;;;0.77;61.77
69737;BME280;64476;55.004;73.342;2023-02-23T18:03:25;99089.59;;;0.34;61.46
69737;BME280;64476;55.004;73.342;2023-02-23T18:06:43;99068.50;;;0.08;61.54
69737;BME280;64476;55.004;73.342;2023-02-23T18:09:45;99113.34;;;0.28;61.60
69737;BME280;64476;55.004;73.342;2023-02-23T18:12:51;99074.16;;;-0.07;61.34
69737;BME280;64476;55.004;73.342;2023-02-23T18:15:57;99121.75;;;-0.00;61.56
69737;BME280;64476;55.004;73.342;2023-02-23T18:19:12;99086.00;;;-0.26;61.69
69737;BME280;64476;55.004;73.342;2023-02-23T18:22:13;99145.44;;;0.05;61.15
69737;BME280;64476;55.004;73.342;2023-02-23T18:25:24;99155.47;;;-0.02;61.51
69737;BME280;64476;55.004;73.342;2023-02-23T18:28:26;99107.03;;;-0.30;61.27
69737;BME280;64476;55.004;73.342;2023-02-23T18:31:27;99105.69;;;-0.25;61.02
69737;BME280;64476;55.004;73.342;2023-02-23T18:34:39;99142.28;;;0.01;60.97
69737;BME280;64476;55.004;73.342;2023-02-23T18:37:41;99130.78;;;0.05;60.95
69737;BME280;64476;55.004;73.342;2023-02-23T18:40:43;99093.44;;;-0.12;60.59
69737;BME280;64476;55.004;73.342;2023-02-23T18:43:50;99131.06;;;0.12;60.44
69737;BME280;64476;55.004;73.342;2023-02-23T18:47:01;99148.72;;;0.28;60.03
69737;BME280;64476;55.004;73.342;2023-02-23T18:50:03;99127.75;;;0.00;60.14
69737;BME280;64476;55.004;73.342;2023-02-23T18:53:05;99140.97;;;0.07;59.66
69737;BME280;64476;55.004;73.342;2023-02-23T18:56:17;99147.19;;;0.04;60.26
69737;BME280;64476;55.004;73.342;2023-02-23T18:59:36;99083.63;;;-0.39;59.82
69737;BME280;64476;55.004;73.342;2023-02-23T19:02:45;99145.50;;;-0.06;60.06
69737;BME280;64476;55.004;73.342;2023-02-23T19:05:47;99145.50;;;-0.27;60.34
69737;BME280;64476;55.004;73.342;2023-02-23T19:08:59;99118.06;;;-0.49;60.37
69737;BME280;64476;55.004;73.342;2023-02-23T19:12:03;99110.75;;;-0.76;60.77
69737;BME280;64476;55.004;73.342;2023-02-23T19:15:14;99145.19;;;-0.66;61.11
69737;BME280;64476;55.004;73.342;2023-02-23T19:18:21;99144.63;;;-0.70;61.56
69737;BME280;64476;55.004;73.342;2023-02-23T19:21:33;99163.59;;;-0.59;61.20
69737;BME280;64476;55.004;73.342;2023-02-23T19:24:35;99150.94;;;-0.63;61.22
69737;BME280;64476;55.004;73.342;2023-02-23T19:27:42;99098.50;;;-0.95;61.32
69737;BME280;64476;55.004;73.342;2023-02-23T19:30:45;99169.47;;;-0.57;61.19